createdAt,value
2018-01-23T00:00:01.792Z,23.24
2018-01-23T00:00:33.793Z,23.19
2018-01-23T00:01:05.820Z,23.14
2018-01-23T00:01:37.812Z,23.26
2018-01-23T00:02:09.782Z,23.19
2018-01-23T00:02:41.762Z,23.18
2018-01-23T00:03:13.706Z,23.18
2018-01-23T00:03:45.725Z,23.15
2018-01-23T00:04:17.899Z,23.15
2018-01-23T00:04:50.060Z,23.22
2018-01-23T00:05:22.061Z,23.18
2018-01-23T00:05:54.116Z,23.21
2018-01-23T00:06:26.134Z,23.19
2018-01-23T00:06:58.255Z,23.22
2018-01-23T00:07:30.299Z,23.29
2018-01-23T00:08:02.308Z,23.1
2018-01-23T00:08:34.337Z,23.26
2018-01-23T00:09:06.483Z,23.14
2018-01-23T00:09:38.489Z,23.24
2018-01-23T00:10:10.521Z,23.18
2018-01-23T00:10:42.569Z,23.18
2018-01-23T00:11:14.566Z,23.22
2018-01-23T00:11:46.571Z,23.24
2018-01-23T00:12:18.544Z,23.18
2018-01-23T00:12:50.597Z,23.15
2018-01-23T00:13:23.113Z,23.22
2018-01-23T00:13:55.114Z,23.21
2018-01-23T00:14:27.104Z,23.18
2018-01-23T00:14:59.089Z,23.19
2018-01-23T00:15:31.118Z,23.25
2018-01-23T00:16:03.170Z,23.16
2018-01-23T00:16:35.184Z,23.18
2018-01-23T00:17:07.174Z,23.19
2018-01-23T00:17:39.155Z,23.18
2018-01-23T00:18:12.801Z,23.18
2018-01-23T00:18:44.824Z,23.16
2018-01-23T00:19:16.911Z,23.14
2018-01-23T00:19:48.945Z,23.26
2018-01-23T00:20:20.963Z,23.18
2018-01-23T00:20:52.986Z,23.18
2018-01-23T00:21:25.007Z,23.21
2018-01-23T00:21:56.986Z,23.16
2018-01-23T00:22:29.678Z,23.18
2018-01-23T00:23:01.699Z,23.24
2018-01-23T00:23:33.728Z,23.18
2018-01-23T00:24:05.750Z,23.16
2018-01-23T00:24:37.745Z,23.19
2018-01-23T00:25:09.736Z,23.15
2018-01-23T00:25:41.753Z,23.16
2018-01-23T00:26:14.402Z,23.16
2018-01-23T00:26:46.434Z,23.29
2018-01-23T00:27:18.410Z,23.18
2018-01-23T00:27:50.539Z,23.18
2018-01-23T00:28:22.556Z,23.14
2018-01-23T00:28:54.559Z,23.25
2018-01-23T00:29:26.573Z,23.14
2018-01-23T00:29:58.558Z,23.19
2018-01-23T00:30:30.577Z,23.19
2018-01-23T00:31:02.575Z,23.15
2018-01-23T00:31:34.661Z,23.22
2018-01-23T00:32:06.647Z,23.22
2018-01-23T00:32:38.639Z,23.24
2018-01-23T00:33:11.194Z,23.24
2018-01-23T00:33:43.204Z,23.21
2018-01-23T00:34:15.169Z,23.22
2018-01-23T00:34:48.088Z,23.21
2018-01-23T00:35:20.224Z,23.18
2018-01-23T00:35:52.184Z,23.29
2018-01-23T00:36:24.203Z,23.19
2018-01-23T00:36:56.210Z,23.18
2018-01-23T00:37:28.252Z,23.18
2018-01-23T00:38:00.236Z,23.19
2018-01-23T00:38:32.284Z,23.14
2018-01-23T00:39:04.433Z,23.15
2018-01-23T00:39:36.452Z,23.18
2018-01-23T00:40:08.485Z,23.14
2018-01-23T00:40:40.472Z,23.18
2018-01-23T00:41:12.539Z,23.18
2018-01-23T00:41:44.571Z,23.15
2018-01-23T00:42:17.418Z,23.21
2018-01-23T00:42:49.414Z,23.22
2018-01-23T00:43:21.432Z,23.21
2018-01-23T00:43:53.432Z,23.21
2018-01-23T00:44:25.902Z,23.16
2018-01-23T00:44:57.860Z,23.21
2018-01-23T00:45:29.863Z,23.15
2018-01-23T00:46:01.837Z,23.21
2018-01-23T00:46:33.816Z,23.18
2018-01-23T00:47:05.876Z,23.18
2018-01-23T00:47:37.895Z,23.22
2018-01-23T00:48:09.897Z,23.19
2018-01-23T00:48:41.925Z,23.18
2018-01-23T00:49:13.916Z,23.21
2018-01-23T00:49:45.912Z,23.16
2018-01-23T00:50:17.948Z,23.15
2018-01-23T00:50:49.961Z,23.14
2018-01-23T00:51:21.984Z,23.16
2018-01-23T00:51:54.047Z,23.22
2018-01-23T00:52:26.113Z,23.19
2018-01-23T00:52:58.127Z,23.12
2018-01-23T00:53:30.103Z,23.16
2018-01-23T00:54:02.084Z,23.18
2018-01-23T00:54:34.094Z,23.15
2018-01-23T00:55:06.134Z,23.16
2018-01-23T00:55:38.114Z,23.1
2018-01-23T00:56:10.117Z,23.18
2018-01-23T00:56:42.129Z,23.15
2018-01-23T00:57:14.180Z,23.15
2018-01-23T00:57:46.192Z,23.21
2018-01-23T00:58:18.210Z,23.18
2018-01-23T00:58:50.258Z,23.04
2018-01-23T00:59:22.250Z,23.12
2018-01-23T00:59:54.326Z,23.1
2018-01-23T01:00:26.331Z,23.09
2018-01-23T01:00:58.322Z,23.15
2018-01-23T01:01:30.357Z,23.12
2018-01-23T01:02:03.234Z,23.18
2018-01-23T01:02:35.298Z,23.12
2018-01-23T01:03:07.315Z,23.04
2018-01-23T01:03:39.340Z,23.07
2018-01-23T01:04:11.309Z,23.19
2018-01-23T01:04:44.009Z,23.09
2018-01-23T01:05:16.048Z,23.12
2018-01-23T01:05:48.072Z,23.15
2018-01-23T01:06:20.069Z,23.15
2018-01-23T01:06:52.089Z,23.12
2018-01-23T01:07:25.028Z,23.1
2018-01-23T01:07:57.065Z,23.16
2018-01-23T01:08:29.090Z,23.14
2018-01-23T01:09:01.646Z,23.09
2018-01-23T01:09:33.628Z,23.16
2018-01-23T01:10:05.665Z,23.06
2018-01-23T01:10:37.676Z,23.12
2018-01-23T01:11:09.715Z,23.16
2018-01-23T01:11:41.755Z,23.09
2018-01-23T01:12:13.781Z,23.09
2018-01-23T01:12:45.869Z,23.03
2018-01-23T01:13:17.921Z,23.09
2018-01-23T01:13:50.044Z,23.09
2018-01-23T01:14:22.069Z,23.09
2018-01-23T01:14:54.085Z,23.12
2018-01-23T01:15:26.177Z,23.09
2018-01-23T01:15:58.192Z,23.12
2018-01-23T01:16:30.159Z,23.1
2018-01-23T01:17:02.199Z,23.09
2018-01-23T01:17:34.198Z,23.15
2018-01-23T01:18:06.207Z,23.09
2018-01-23T01:18:38.257Z,23.04
2018-01-23T01:19:10.247Z,23.1
2018-01-23T01:19:42.252Z,23.16
2018-01-23T01:20:14.272Z,23.15
2018-01-23T01:20:46.282Z,23.06
2018-01-23T01:21:18.301Z,23.06
2018-01-23T01:21:50.334Z,23.15
2018-01-23T01:22:22.319Z,23.15
2018-01-23T01:22:54.320Z,23.12
2018-01-23T01:23:26.312Z,23.1
2018-01-23T01:23:58.334Z,23.04
2018-01-23T01:24:30.405Z,23.09
2018-01-23T01:25:02.402Z,23.09
2018-01-23T01:25:34.413Z,23.1
2018-01-23T01:26:06.450Z,23.04
2018-01-23T01:26:38.559Z,23.1
2018-01-23T01:27:11.455Z,23.12
2018-01-23T01:27:43.461Z,23.15
2018-01-23T01:28:15.468Z,23.03
2018-01-23T01:28:47.564Z,23.09
2018-01-23T01:29:19.611Z,23.04
2018-01-23T01:29:51.597Z,23.12
2018-01-23T01:30:23.577Z,23.12
2018-01-23T01:30:55.574Z,23.15
2018-01-23T01:31:27.556Z,23.09
2018-01-23T01:32:00.460Z,23.1
2018-01-23T01:32:32.448Z,23.16
2018-01-23T01:33:04.489Z,23.15
2018-01-23T01:33:36.570Z,23.06
2018-01-23T01:34:08.591Z,23.09
2018-01-23T01:34:40.624Z,23.04
2018-01-23T01:35:12.660Z,23.06
2018-01-23T01:35:45.463Z,23.12
2018-01-23T01:36:17.473Z,23.16
2018-01-23T01:36:49.516Z,23.14
2018-01-23T01:37:21.550Z,23.09
2018-01-23T01:37:53.647Z,23.06
2018-01-23T01:38:25.696Z,23.1
2018-01-23T01:38:57.699Z,23.12
2018-01-23T01:39:29.689Z,23.07
2018-01-23T01:40:01.688Z,23.09
2018-01-23T01:40:33.693Z,23.19
2018-01-23T01:41:05.644Z,23.15
2018-01-23T01:41:37.632Z,23.16
2018-01-23T01:42:09.662Z,23.12
2018-01-23T01:42:41.678Z,23.1
2018-01-23T01:43:13.647Z,23.12
2018-01-23T01:43:45.673Z,23.09
2018-01-23T01:44:17.706Z,23.07
2018-01-23T01:44:49.722Z,23.09
2018-01-23T01:45:21.709Z,23.12
2018-01-23T01:45:53.763Z,23.09
2018-01-23T01:46:25.776Z,23.15
2018-01-23T01:46:57.763Z,23.15
2018-01-23T01:47:29.839Z,23.09
2018-01-23T01:48:01.828Z,23.09
2018-01-23T01:48:34.358Z,23.07
2018-01-23T01:49:06.393Z,23.04
2018-01-23T01:49:38.396Z,23.03
2018-01-23T01:50:10.461Z,23.15
2018-01-23T01:50:42.480Z,23.07
2018-01-23T01:51:14.452Z,23.07
2018-01-23T01:51:46.446Z,23.12
2018-01-23T01:52:18.501Z,23.18
2018-01-23T01:52:51.356Z,23.12
2018-01-23T01:53:23.392Z,23.12
2018-01-23T01:53:55.443Z,23.15
2018-01-23T01:54:27.421Z,23.14
2018-01-23T01:54:59.460Z,23.06
2018-01-23T01:55:31.498Z,23.09
2018-01-23T01:56:04.060Z,23.16
2018-01-23T01:56:36.074Z,23.04
2018-01-23T01:57:08.103Z,23.1
2018-01-23T01:57:40.065Z,23.14
2018-01-23T01:58:12.100Z,23.09
2018-01-23T01:58:44.125Z,23.1
2018-01-23T01:59:16.138Z,23.07
2018-01-23T01:59:48.189Z,23.16
2018-01-23T02:00:20.240Z,23.06
2018-01-23T02:00:52.267Z,23.15
2018-01-23T02:01:24.283Z,23.12
2018-01-23T02:01:56.271Z,23.06
2018-01-23T02:02:28.244Z,23.1
2018-01-23T02:03:00.210Z,23.16
2018-01-23T02:03:32.171Z,23.1
2018-01-23T02:04:04.305Z,23.07
2018-01-23T02:04:36.322Z,23.18
2018-01-23T02:05:08.344Z,23.07
2018-01-23T02:05:40.348Z,23.09
2018-01-23T02:06:12.353Z,23.1
2018-01-23T02:06:44.417Z,23.09
2018-01-23T02:07:16.509Z,23.09
2018-01-23T02:07:48.534Z,23.06
2018-01-23T02:08:20.635Z,23.07
2018-01-23T02:08:52.630Z,23.09
2018-01-23T02:09:24.608Z,23.12
2018-01-23T02:09:56.613Z,23.15
2018-01-23T02:10:28.661Z,23.09
2018-01-23T02:11:00.677Z,23.1
2018-01-23T02:11:33.773Z,23.14
2018-01-23T02:12:05.815Z,23.09
2018-01-23T02:12:37.853Z,23.19
2018-01-23T02:13:09.867Z,23.09
2018-01-23T02:13:42.456Z,23.03
2018-01-23T02:14:14.480Z,23.12
2018-01-23T02:14:46.462Z,23.09
2018-01-23T02:15:18.481Z,23.09
2018-01-23T02:15:50.494Z,23.1
2018-01-23T02:16:22.560Z,23.04
2018-01-23T02:16:54.645Z,23.06
2018-01-23T02:17:27.469Z,23.1
2018-01-23T02:17:59.438Z,23.07
2018-01-23T02:18:31.458Z,23.09
2018-01-23T02:19:03.458Z,23.09
2018-01-23T02:19:35.488Z,23.09
2018-01-23T02:20:07.559Z,23.06
2018-01-23T02:20:39.717Z,23.06
2018-01-23T02:21:11.791Z,23.09
2018-01-23T02:21:43.786Z,23.18
2018-01-23T02:22:15.783Z,23.14
2018-01-23T02:22:47.816Z,23.06
2018-01-23T02:23:19.835Z,23.07
2018-01-23T02:23:52.487Z,23.03
2018-01-23T02:24:24.479Z,23.04
2018-01-23T02:24:56.542Z,23.01
2018-01-23T02:25:28.541Z,23.07
2018-01-23T02:26:00.555Z,23.09
2018-01-23T02:26:32.583Z,23.15
2018-01-23T02:27:04.558Z,23.07
2018-01-23T02:27:36.566Z,23.03
2018-01-23T02:28:08.554Z,23.07
2018-01-23T02:28:40.562Z,23.09
2018-01-23T02:29:12.580Z,23.09
2018-01-23T02:29:44.580Z,23.09
2018-01-23T02:30:16.589Z,23.06
2018-01-23T02:30:48.600Z,23
2018-01-23T02:31:20.755Z,23.07
2018-01-23T02:31:52.696Z,23.09
2018-01-23T02:32:24.651Z,23.14
2018-01-23T02:32:56.658Z,23.1
2018-01-23T02:33:28.642Z,23.21
2018-01-23T02:34:00.667Z,23.07
2018-01-23T02:34:32.652Z,23.04
2018-01-23T02:35:04.638Z,23.04
2018-01-23T02:35:36.651Z,23.07
2018-01-23T02:36:08.671Z,23.07
2018-01-23T02:36:41.387Z,23.18
2018-01-23T02:37:13.448Z,23.07
2018-01-23T02:37:45.434Z,23.07
2018-01-23T02:38:17.427Z,23.06
2018-01-23T02:38:49.430Z,23.09
2018-01-23T02:39:21.429Z,23.06
2018-01-23T02:39:53.472Z,23.1
2018-01-23T02:40:25.541Z,23.1
2018-01-23T02:40:57.568Z,23.09
2018-01-23T02:41:29.537Z,23.04
2018-01-23T02:42:01.563Z,23.06
2018-01-23T02:42:33.597Z,23.04
2018-01-23T02:43:05.652Z,23.09
2018-01-23T02:43:37.695Z,23.07
2018-01-23T02:44:09.733Z,23.06
2018-01-23T02:44:41.720Z,23.04
2018-01-23T02:45:13.752Z,23
2018-01-23T02:45:45.754Z,23.09
2018-01-23T02:46:17.792Z,23.07
2018-01-23T02:46:49.912Z,23.09
2018-01-23T02:47:21.929Z,23.09
2018-01-23T02:47:53.947Z,23.1
2018-01-23T02:48:25.962Z,23.16
2018-01-23T02:48:58.002Z,23.07
2018-01-23T02:49:30.017Z,23.07
2018-01-23T02:50:02.041Z,23.15
2018-01-23T02:50:34.099Z,23.06
2018-01-23T02:51:06.080Z,23.16
2018-01-23T02:51:38.059Z,23.15
2018-01-23T02:52:10.025Z,23.07
2018-01-23T02:52:42.011Z,23.06
2018-01-23T02:53:14.035Z,23.06
2018-01-23T02:53:46.046Z,23.12
2018-01-23T02:54:18.050Z,23.09
2018-01-23T02:54:50.059Z,23.14
2018-01-23T02:55:22.071Z,23.09
2018-01-23T02:55:54.061Z,23.01
2018-01-23T02:56:26.070Z,23.16
2018-01-23T02:56:58.043Z,23.06
2018-01-23T02:57:30.023Z,23.09
2018-01-23T02:58:02.039Z,23.14
2018-01-23T02:58:34.069Z,23.06
2018-01-23T02:59:06.088Z,23.09
2018-01-23T02:59:38.080Z,23.04
2018-01-23T03:00:10.098Z,23.15
2018-01-23T03:00:42.095Z,23.03
2018-01-23T03:01:14.130Z,23.09
2018-01-23T03:01:46.106Z,23.06
2018-01-23T03:02:18.111Z,23.12
2018-01-23T03:02:50.111Z,23.07
2018-01-23T03:03:22.205Z,23.09
2018-01-23T03:03:54.237Z,23.09
2018-01-23T03:04:26.255Z,23.06
2018-01-23T03:04:58.268Z,23.06
2018-01-23T03:05:30.868Z,23.09
2018-01-23T03:06:03.735Z,23.14
2018-01-23T03:06:35.722Z,23
2018-01-23T03:07:07.730Z,23.07
2018-01-23T03:07:39.712Z,23.12
2018-01-23T03:08:11.672Z,23.03
2018-01-23T03:08:43.717Z,23.04
2018-01-23T03:09:15.915Z,23.15
2018-01-23T03:09:48.059Z,23.06
2018-01-23T03:10:20.119Z,23.04
2018-01-23T03:10:52.169Z,23.14
2018-01-23T03:11:24.196Z,22.99
2018-01-23T03:11:56.218Z,23.1
2018-01-23T03:12:28.257Z,23.12
2018-01-23T03:13:00.218Z,23.1
2018-01-23T03:13:32.258Z,23.04
2018-01-23T03:14:04.253Z,23.04
2018-01-23T03:14:36.253Z,23.09
2018-01-23T03:15:08.224Z,23.06
2018-01-23T03:15:40.255Z,23.07
2018-01-23T03:16:12.237Z,23.06
2018-01-23T03:16:44.646Z,23.06
2018-01-23T03:17:16.670Z,23.04
2018-01-23T03:17:48.665Z,23.09
2018-01-23T03:18:20.680Z,23.09
2018-01-23T03:18:52.685Z,23.07
2018-01-23T03:19:24.708Z,23.06
2018-01-23T03:19:56.734Z,23.09
2018-01-23T03:20:28.735Z,23.1
2018-01-23T03:21:00.881Z,23.16
2018-01-23T03:21:32.918Z,23.06
2018-01-23T03:22:04.891Z,23.1
2018-01-23T03:22:36.926Z,23.03
2018-01-23T03:23:08.929Z,23.04
2018-01-23T03:23:40.938Z,23.09
2018-01-23T03:24:12.971Z,23.06
2018-01-23T03:24:45.723Z,23.07
2018-01-23T03:25:17.720Z,23.14
2018-01-23T03:25:49.740Z,23.03
2018-01-23T03:26:21.731Z,23.12
2018-01-23T03:26:53.722Z,23.04
2018-01-23T03:27:26.618Z,23.12
2018-01-23T03:27:58.693Z,23.12
2018-01-23T03:28:30.677Z,23.09
2018-01-23T03:29:02.691Z,23.07
2018-01-23T03:29:34.839Z,23.06
2018-01-23T03:30:06.792Z,23.21
2018-01-23T03:30:38.802Z,23.1
2018-01-23T03:31:11.783Z,23.07
2018-01-23T03:31:43.814Z,23.06
2018-01-23T03:32:15.813Z,23.07
2018-01-23T03:32:47.805Z,23.04
2018-01-23T03:33:19.765Z,23.1
2018-01-23T03:33:51.758Z,23.03
2018-01-23T03:34:23.810Z,23.18
2018-01-23T03:34:55.839Z,23.06
2018-01-23T03:35:27.845Z,23
2018-01-23T03:35:59.865Z,23.06
2018-01-23T03:36:31.865Z,23.09
2018-01-23T03:37:04.405Z,23.06
2018-01-23T03:37:36.416Z,23.07
2018-01-23T03:38:08.466Z,23.09
2018-01-23T03:38:40.453Z,23.07
2018-01-23T03:39:12.454Z,23.06
2018-01-23T03:39:44.445Z,23.09
2018-01-23T03:40:16.485Z,23.12
2018-01-23T03:40:48.427Z,23.07
2018-01-23T03:41:20.421Z,23.06
2018-01-23T03:41:52.445Z,23.1
2018-01-23T03:42:24.487Z,23.12
2018-01-23T03:42:56.606Z,23.12
2018-01-23T03:43:29.346Z,23.1
2018-01-23T03:44:01.311Z,23.07
2018-01-23T03:44:33.317Z,23.07
2018-01-23T03:45:05.353Z,23.07
2018-01-23T03:45:37.332Z,23.07
2018-01-23T03:46:09.327Z,23.1
2018-01-23T03:46:41.387Z,23.04
2018-01-23T03:47:13.403Z,23.07
2018-01-23T03:47:45.401Z,23.16
2018-01-23T03:48:17.376Z,23.03
2018-01-23T03:48:49.389Z,23.14
2018-01-23T03:49:21.415Z,23.09
2018-01-23T03:49:53.426Z,23.12
2018-01-23T03:50:25.495Z,23.15
2018-01-23T03:50:57.481Z,23.06
2018-01-23T03:51:29.631Z,23.09
2018-01-23T03:52:01.607Z,23.09
2018-01-23T03:52:33.620Z,23.1
2018-01-23T03:53:05.676Z,23.06
2018-01-23T03:53:37.682Z,23.14
2018-01-23T03:54:09.670Z,23.12
2018-01-23T03:54:41.704Z,23.06
2018-01-23T03:55:13.684Z,23.16
2018-01-23T03:55:45.735Z,23.04
2018-01-23T03:56:17.782Z,23.09
2018-01-23T03:56:49.827Z,23.1
2018-01-23T03:57:21.872Z,23.1
2018-01-23T03:57:54.858Z,23.1
2018-01-23T03:58:27.020Z,23.07
2018-01-23T03:58:59.193Z,23.1
2018-01-23T03:59:31.219Z,23.12
2018-01-23T04:00:03.222Z,23.09
2018-01-23T04:00:35.901Z,23.1
2018-01-23T04:01:07.894Z,23.09
2018-01-23T04:01:40.711Z,23.07
2018-01-23T04:02:12.723Z,23.15
2018-01-23T04:02:44.761Z,23.09
2018-01-23T04:03:16.752Z,23.09
2018-01-23T04:03:48.866Z,23.1
2018-01-23T04:04:20.882Z,23.04
2018-01-23T04:04:52.828Z,23.15
2018-01-23T04:05:24.862Z,23.1
2018-01-23T04:05:56.844Z,23.12
2018-01-23T04:06:28.801Z,23.14
2018-01-23T04:07:00.798Z,23.09
2018-01-23T04:07:33.346Z,23.15
2018-01-23T04:08:05.380Z,23.03
2018-01-23T04:08:37.861Z,23.04
2018-01-23T04:09:09.936Z,23.1
2018-01-23T04:09:41.986Z,23.16
2018-01-23T04:10:13.987Z,23.15
2018-01-23T04:10:46.018Z,23.04
2018-01-23T04:11:18.121Z,23.15
2018-01-23T04:11:50.063Z,23.1
2018-01-23T04:12:22.048Z,23.12
2018-01-23T04:12:54.083Z,23.1
2018-01-23T04:13:26.115Z,23.09
2018-01-23T04:13:58.104Z,23.06
2018-01-23T04:14:30.109Z,23.19
2018-01-23T04:15:02.110Z,23.16
2018-01-23T04:15:34.202Z,23.12
2018-01-23T04:16:06.190Z,23.18
2018-01-23T04:16:38.227Z,23.14
2018-01-23T04:17:10.281Z,23.09
2018-01-23T04:17:42.323Z,23.09
2018-01-23T04:18:14.295Z,23.18
2018-01-23T04:18:46.280Z,23.15
2018-01-23T04:19:18.295Z,23.16
2018-01-23T04:19:50.246Z,23.12
2018-01-23T04:20:22.335Z,23.12
2018-01-23T04:20:54.499Z,23.16
2018-01-23T04:21:27.220Z,23.21
2018-01-23T04:21:59.261Z,23.12
2018-01-23T04:22:31.258Z,23.15
2018-01-23T04:23:03.231Z,23.14
2018-01-23T04:23:35.256Z,23.12
2018-01-23T04:24:07.244Z,23.14
2018-01-23T04:24:39.219Z,23.18
2018-01-23T04:25:11.193Z,23.18
2018-01-23T04:25:43.161Z,23.18
2018-01-23T04:26:16.555Z,23.18
2018-01-23T04:26:48.570Z,23.14
2018-01-23T04:27:20.621Z,23.14
2018-01-23T04:27:52.693Z,23.18
2018-01-23T04:28:24.708Z,23.15
2018-01-23T04:28:56.690Z,23.15
2018-01-23T04:29:28.696Z,23.15
2018-01-23T04:30:01.293Z,23.18
2018-01-23T04:30:33.324Z,23.16
2018-01-23T04:31:06.033Z,23.21
2018-01-23T04:31:38.050Z,23.18
2018-01-23T04:32:10.018Z,23.18
2018-01-23T04:32:42.010Z,23.18
2018-01-23T04:33:14.035Z,23.19
2018-01-23T04:33:46.036Z,23.18
2018-01-23T04:34:18.046Z,23.15
2018-01-23T04:34:50.040Z,23.18
2018-01-23T04:35:22.093Z,23.26
2018-01-23T04:35:54.087Z,23.22
2018-01-23T04:36:26.074Z,23.21
2018-01-23T04:36:58.940Z,23.15
2018-01-23T04:37:31.049Z,23.22
2018-01-23T04:38:03.652Z,23.18
2018-01-23T04:38:35.638Z,23.14
2018-01-23T04:39:08.453Z,23.21
2018-01-23T04:39:40.481Z,23.22
2018-01-23T04:40:12.488Z,23.15
2018-01-23T04:40:44.515Z,23.14
2018-01-23T04:41:16.561Z,23.16
2018-01-23T04:41:48.600Z,23.22
2018-01-23T04:42:20.644Z,23.22
2018-01-23T04:42:52.641Z,23.16
2018-01-23T04:43:24.665Z,23.21
2018-01-23T04:43:56.674Z,23.26
2018-01-23T04:44:28.692Z,23.18
2018-01-23T04:45:00.715Z,23.19
2018-01-23T04:45:32.740Z,23.18
2018-01-23T04:46:05.558Z,23.18
2018-01-23T04:46:37.570Z,23.24
2018-01-23T04:47:09.577Z,23.21
2018-01-23T04:47:41.560Z,23.15
2018-01-23T04:48:13.620Z,23.19
2018-01-23T04:48:45.728Z,23.29
2018-01-23T04:49:17.776Z,23.19
2018-01-23T04:49:49.818Z,23.18
2018-01-23T04:50:21.830Z,23.24
2018-01-23T04:50:54.341Z,23.16
2018-01-23T04:51:26.323Z,23.22
2018-01-23T04:51:58.861Z,23.22
2018-01-23T04:52:30.899Z,23.15
2018-01-23T04:53:02.947Z,23.15
2018-01-23T04:53:34.937Z,23.21
2018-01-23T04:54:06.935Z,23.21
2018-01-23T04:54:38.943Z,23.22
2018-01-23T04:55:10.964Z,23.22
2018-01-23T04:55:43.045Z,23.16
2018-01-23T04:56:15.146Z,23.21
2018-01-23T04:56:47.145Z,23.24
2018-01-23T04:57:19.156Z,23.21
2018-01-23T04:57:51.211Z,23.19
2018-01-23T04:58:23.252Z,23.21
2018-01-23T04:58:55.287Z,23.19
2018-01-23T04:59:27.356Z,23.21
2018-01-23T04:59:59.327Z,23.18
2018-01-23T05:00:31.353Z,23.16
2018-01-23T05:01:03.329Z,23.22
2018-01-23T05:01:36.841Z,23.21
2018-01-23T05:02:08.844Z,23.1
2018-01-23T05:02:40.826Z,23.15
2018-01-23T05:03:13.000Z,23.18
2018-01-23T05:03:45.010Z,23.21
2018-01-23T05:04:17.073Z,23.19
2018-01-23T05:04:49.119Z,23.21
2018-01-23T05:05:21.669Z,23.24
2018-01-23T05:05:54.556Z,23.24
2018-01-23T05:06:26.567Z,23.18
2018-01-23T05:06:58.583Z,23.15
2018-01-23T05:07:30.615Z,23.18
2018-01-23T05:08:02.623Z,23.21
2018-01-23T05:08:34.655Z,23.15
2018-01-23T05:09:06.716Z,23.24
2018-01-23T05:09:38.781Z,23.26
2018-01-23T05:10:10.786Z,23.18
2018-01-23T05:10:42.839Z,23.24
2018-01-23T05:11:14.828Z,23.14
2018-01-23T05:11:46.843Z,23.18
2018-01-23T05:12:18.849Z,23.24
2018-01-23T05:12:51.397Z,23.18
2018-01-23T05:13:23.390Z,23.16
2018-01-23T05:13:55.537Z,23.15
2018-01-23T05:14:27.542Z,23.18
2018-01-23T05:14:59.562Z,23.21
2018-01-23T05:15:31.573Z,23.14
2018-01-23T05:16:03.596Z,23.21
2018-01-23T05:16:35.614Z,23.22
2018-01-23T05:17:07.665Z,23.19
2018-01-23T05:17:39.638Z,23.14
2018-01-23T05:18:11.640Z,23.18
2018-01-23T05:18:44.461Z,23.18
2018-01-23T05:19:17.299Z,23.24
2018-01-23T05:19:49.275Z,23.15
2018-01-23T05:20:21.265Z,23.22
2018-01-23T05:20:53.234Z,23.21
2018-01-23T05:21:25.326Z,23.15
2018-01-23T05:21:57.316Z,23.18
2018-01-23T05:22:29.427Z,23.15
2018-01-23T05:23:01.526Z,23.24
2018-01-23T05:23:33.594Z,23.18
2018-01-23T05:24:05.621Z,23.26
2018-01-23T05:24:37.622Z,23.26
2018-01-23T05:25:09.617Z,23.19
2018-01-23T05:25:41.611Z,23.18
2018-01-23T05:26:13.647Z,23.22
2018-01-23T05:26:45.644Z,23.19
2018-01-23T05:27:17.649Z,23.18
2018-01-23T05:27:49.625Z,23.25
2018-01-23T05:28:21.628Z,23.25
2018-01-23T05:28:53.638Z,23.24
2018-01-23T05:29:25.632Z,23.18
2018-01-23T05:29:57.661Z,23.21
2018-01-23T05:30:29.653Z,23.12
2018-01-23T05:31:01.687Z,23.28
2018-01-23T05:31:34.591Z,23.22
2018-01-23T05:32:06.761Z,23.21
2018-01-23T05:32:38.920Z,23.26
2018-01-23T05:33:10.913Z,23.25
2018-01-23T05:33:42.926Z,23.15
2018-01-23T05:34:14.928Z,23.18
2018-01-23T05:34:47.783Z,23.19
2018-01-23T05:35:19.832Z,23.18
2018-01-23T05:35:51.792Z,23.21
2018-01-23T05:36:23.765Z,23.22
2018-01-23T05:36:55.793Z,23.28
2018-01-23T05:37:27.797Z,23.22
2018-01-23T05:37:59.859Z,23.22
2018-01-23T05:38:31.889Z,23.26
2018-01-23T05:39:03.896Z,23.19
2018-01-23T05:39:35.907Z,23.21
2018-01-23T05:40:08.589Z,23.25
2018-01-23T05:40:40.690Z,23.28
2018-01-23T05:41:12.704Z,23.28
2018-01-23T05:41:44.726Z,23.19
2018-01-23T05:42:16.756Z,23.22
2018-01-23T05:42:48.862Z,23.18
2018-01-23T05:43:20.858Z,23.24
2018-01-23T05:43:52.954Z,23.24
2018-01-23T05:44:24.901Z,23.26
2018-01-23T05:44:56.942Z,23.21
2018-01-23T05:45:28.950Z,23.25
2018-01-23T05:46:00.967Z,23.24
2018-01-23T05:46:32.965Z,23.25
2018-01-23T05:47:05.009Z,23.29
2018-01-23T05:47:36.973Z,23.22
2018-01-23T05:48:10.518Z,23.21
2018-01-23T05:48:42.518Z,23.25
2018-01-23T05:49:14.603Z,23.18
2018-01-23T05:49:46.683Z,23.26
2018-01-23T05:50:18.717Z,23.26
2018-01-23T05:50:51.284Z,23.09
2018-01-23T05:51:23.385Z,23.24
2018-01-23T05:51:55.393Z,23.26
2018-01-23T05:52:27.409Z,23.16
2018-01-23T05:52:59.392Z,23.22
2018-01-23T05:53:31.399Z,23.21
2018-01-23T05:54:04.111Z,23.21
2018-01-23T05:54:36.108Z,23.25
2018-01-23T05:55:08.052Z,23.22
2018-01-23T05:55:40.065Z,23.22
2018-01-23T05:56:12.052Z,23.24
2018-01-23T05:56:44.077Z,23.22
2018-01-23T05:57:16.125Z,23.32
2018-01-23T05:57:48.279Z,23.24
2018-01-23T05:58:20.281Z,23.25
2018-01-23T05:58:52.305Z,23.26
2018-01-23T05:59:24.374Z,23.24
2018-01-23T05:59:56.390Z,23.25
2018-01-23T06:00:28.406Z,23.22
2018-01-23T06:01:00.397Z,23.19
2018-01-23T06:01:32.437Z,23.26
2018-01-23T06:02:04.452Z,23.28
2018-01-23T06:02:36.484Z,23.18
2018-01-23T06:03:08.632Z,23.22
2018-01-23T06:03:41.397Z,23.22
2018-01-23T06:04:13.350Z,23.15
2018-01-23T06:04:45.327Z,23.24
2018-01-23T06:05:17.316Z,23.24
2018-01-23T06:05:49.330Z,23.22
2018-01-23T06:06:21.342Z,23.24
2018-01-23T06:06:53.384Z,23.22
2018-01-23T06:07:25.329Z,23.25
2018-01-23T06:07:57.359Z,23.25
2018-01-23T06:08:29.364Z,23.25
2018-01-23T06:09:01.415Z,23.18
2018-01-23T06:09:33.456Z,23.25
2018-01-23T06:10:05.436Z,23.19
2018-01-23T06:10:37.418Z,23.24
2018-01-23T06:11:09.450Z,23.22
2018-01-23T06:11:41.568Z,23.19
2018-01-23T06:12:14.435Z,23.18
2018-01-23T06:12:46.498Z,23.22
2018-01-23T06:13:18.487Z,23.26
2018-01-23T06:13:50.523Z,23.25
2018-01-23T06:14:22.511Z,23.15
2018-01-23T06:14:54.490Z,23.21
2018-01-23T06:15:26.493Z,23.18
2018-01-23T06:15:58.480Z,23.25
2018-01-23T06:16:30.470Z,23.22
2018-01-23T06:17:02.570Z,23.15
2018-01-23T06:17:34.675Z,23.16
2018-01-23T06:18:06.663Z,23.26
2018-01-23T06:18:38.680Z,23.16
2018-01-23T06:19:10.729Z,23.15
2018-01-23T06:19:42.707Z,23.19
2018-01-23T06:20:14.707Z,23.22
2018-01-23T06:20:46.741Z,23.26
2018-01-23T06:21:18.727Z,23.25
2018-01-23T06:21:50.692Z,23.22
2018-01-23T06:22:22.687Z,23.18
2018-01-23T06:22:54.687Z,23.22
2018-01-23T06:23:26.752Z,23.22
2018-01-23T06:23:58.745Z,23.18
2018-01-23T06:24:30.795Z,23.24
2018-01-23T06:25:02.859Z,23.15
2018-01-23T06:25:34.896Z,23.22
2018-01-23T06:26:06.911Z,23.18
2018-01-23T06:26:38.950Z,23.15
2018-01-23T06:27:11.000Z,23.18
2018-01-23T06:27:43.033Z,23.15
2018-01-23T06:28:15.023Z,23.26
2018-01-23T06:28:47.063Z,23.21
2018-01-23T06:29:19.133Z,23.25
2018-01-23T06:29:51.129Z,23.26
2018-01-23T06:30:23.244Z,23.22
2018-01-23T06:30:55.396Z,23.15
2018-01-23T06:31:27.447Z,23.14
2018-01-23T06:32:00.213Z,23.22
2018-01-23T06:32:32.235Z,23.21
2018-01-23T06:33:04.272Z,23.26
2018-01-23T06:33:36.294Z,23.21
2018-01-23T06:34:08.280Z,23.24
2018-01-23T06:34:40.358Z,23.14
2018-01-23T06:35:12.404Z,23.15
2018-01-23T06:35:44.382Z,23.18
2018-01-23T06:36:16.389Z,23.14
2018-01-23T06:36:48.460Z,23.26
2018-01-23T06:37:20.527Z,23.14
2018-01-23T06:37:52.510Z,23.15
2018-01-23T06:38:25.024Z,23.15
2018-01-23T06:38:57.191Z,23.14
2018-01-23T06:39:29.163Z,23.15
2018-01-23T06:40:01.890Z,23.18
2018-01-23T06:40:33.957Z,23.18
2018-01-23T06:41:05.985Z,23.18
2018-01-23T06:41:38.019Z,23.18
2018-01-23T06:42:10.051Z,23.18
2018-01-23T06:42:42.081Z,23.18
2018-01-23T06:43:15.046Z,23.15
2018-01-23T06:43:47.060Z,23.18
2018-01-23T06:44:19.082Z,23.22
2018-01-23T06:44:51.233Z,23.15
2018-01-23T06:45:23.372Z,23.1
2018-01-23T06:45:55.378Z,23.18
2018-01-23T06:46:27.348Z,23.12
2018-01-23T06:46:59.960Z,23.07
2018-01-23T06:47:31.967Z,23.26
2018-01-23T06:48:04.006Z,23.14
2018-01-23T06:48:36.572Z,23.16
2018-01-23T06:49:08.680Z,23.04
2018-01-23T06:49:40.704Z,23.14
2018-01-23T06:50:12.716Z,23.18
2018-01-23T06:50:44.748Z,23.1
2018-01-23T06:51:16.769Z,23.21
2018-01-23T06:51:48.778Z,23.18
2018-01-23T06:52:20.787Z,23.14
2018-01-23T06:52:52.773Z,23.12
2018-01-23T06:53:24.760Z,23.19
2018-01-23T06:53:56.880Z,23.09